Chocorua, New Hampshire
Current Conditions -  °F | °C
As of 4:54 AM on Sunday 21 Dec 2014 (Local Time) from KIZG Reporting Station
Overcast Overcast  
Wind Chill: 11°   Ceiling: 700
Heat Index: 19°   Visibility: 10mi
Dew Point: 15°   Wind: 6mph
Humidity: 85%   Direction: 350°N
Pressure: 30.32"   Gusts: NA
Location:  43.88°N, 71.22°W
Report Text: KIZG 210954Z AUTO 35005KT 10SM OVC007 M07/M09 A3032 RMK AO2 SLP276 T10721094
Loading
Personal Weather Stations






























Interactive Weather Map New forecast layout! Learn more

10-Day Weather Forecast

Advertisements
Track Severe Weather on mobile